This is the latest recevied weather packets stored in our database for station/object AI9F. If no packets are shown the sender has not sent any weather packets the latest 10 day(s).
| Time | Temp. | Humidity | Pressure | Rain* | Wind** | Luminosity | Snow |
|---|---|---|---|---|---|---|---|
| 1777429187 | 15.56° C | 92% | 1011.7 hPa | 0 mm | - | 0 W/m² | - |
| 1777425542 | 15.56° C | 91% | 1011.7 hPa | 0 mm | - | 0 W/m² | - |
| 1777425236 | 15.56° C | 90% | 1011.7 hPa | 0 mm | - | 0 W/m² | - |
| 1777424934 | 16.11° C | 90% | 1011.5 hPa | 0 mm | - | 0 W/m² | - |
| 1777423718 | 16.11° C | 92% | 1011.2 hPa | 0 mm | - | 1 W/m² | - |
| 1777423113 | 15.56° C | 92% | 1011.4 hPa | 0 mm | - | 1 W/m² | - |
| 1777422200 | 16.11° C | 91% | 1012.3 hPa | 0 mm | - | 4 W/m² | - |
| 1777420380 | 16.11° C | 89% | 1014.2 hPa | 0 mm | - | 12 W/m² | - |
| 1777413999 | 18.89° C | 71% | 1013.8 hPa | 0 mm | - | 90 W/m² | - |
| 1777410668 | 19.44° C | 67% | 1014 hPa | 0 mm | - | 163 W/m² | - |
| 1777410362 | 19.44° C | 66% | 1014.4 hPa | 0 mm | - | 155 W/m² | - |
| 1777410057 | 20° C | 66% | 1014.8 hPa | 0 mm | - | 144 W/m² | - |
| 1777408542 | 20° C | 65% | 1014.5 hPa | 0 mm | - | 195 W/m² | - |
| 1777407937 | 20° C | 65% | 1014.5 hPa | 0 mm | - | 188 W/m² | - |
| 1777407635 | 20° C | 67% | 1014.7 hPa | 0 mm | - | 189 W/m² | - |
| 1777406724 | 20° C | 66% | 1014.5 hPa | 0 mm | - | 208 W/m² | - |
| 1777406420 | 20° C | 63% | 1014.5 hPa | 0 mm | - | 226 W/m² | - |
| 1777405816 | 20° C | 66% | 1014.6 hPa | 0 mm | - | 265 W/m² | - |
| 1777405512 | 20° C | 62% | 1014.8 hPa | 0 mm | - | 280 W/m² | - |
| 1777404907 | 20° C | 62% | 1015.2 hPa | 0 mm | - | 281 W/m² | - |
| 1777404301 | 20.56° C | 61% | 1015.7 hPa | 0 mm | - | 288 W/m² | - |
| 1777403997 | 20.56° C | 61% | 1015.8 hPa | 0 mm | - | 362 W/m² | - |
| 1777403692 | 20.56° C | 60% | 1015.8 hPa | 0 mm | - | 435 W/m² | - |
| 1777403391 | 20.56° C | 66% | 1016.1 hPa | 0 mm | - | 566 W/m² | - |
| 1777403085 | 20.56° C | 67% | 1015.8 hPa | 0 mm | - | 744 W/m² | - |
* Rain latest hour (hover to see other rain measurements)
** Current wind speed in m/s (hover to see current wind gust speed)